sensor_id;sensor_type;location;lat;lon;timestamp;P1;durP1;ratioP1;P2;durP2;ratioP2
6671;SDS011;3372;48.690;12.362;2023-09-07T00:01:20;4.85;;;3.72;;
6671;SDS011;3372;48.690;12.362;2023-09-07T00:03:46;5.15;;;3.55;;
6671;SDS011;3372;48.690;12.362;2023-09-07T00:06:12;5.35;;;3.78;;
6671;SDS011;3372;48.690;12.362;2023-09-07T00:08:40;4.35;;;3.22;;
6671;SDS011;3372;48.690;12.362;2023-09-07T00:11:06;5.85;;;3.40;;
6671;SDS011;3372;48.690;12.362;2023-09-07T00:13:32;5.97;;;3.13;;
6671;SDS011;3372;48.690;12.362;2023-09-07T00:15:59;6.43;;;3.53;;
6671;SDS011;3372;48.690;12.362;2023-09-07T00:18:25;4.68;;;3.05;;
6671;SDS011;3372;48.690;12.362;2023-09-07T00:20:52;5.57;;;3.22;;
6671;SDS011;3372;48.690;12.362;2023-09-07T00:23:18;4.47;;;3.88;;
6671;SDS011;3372;48.690;12.362;2023-09-07T00:25:45;4.80;;;3.63;;
6671;SDS011;3372;48.690;12.362;2023-09-07T00:28:11;5.85;;;3.60;;
6671;SDS011;3372;48.690;12.362;2023-09-07T00:30:37;5.68;;;3.35;;
6671;SDS011;3372;48.690;12.362;2023-09-07T00:33:03;5.95;;;2.95;;
6671;SDS011;3372;48.690;12.362;2023-09-07T00:35:29;4.57;;;3.20;;
6671;SDS011;3372;48.690;12.362;2023-09-07T00:37:55;4.15;;;3.58;;
6671;SDS011;3372;48.690;12.362;2023-09-07T00:40:24;4.45;;;3.42;;
6671;SDS011;3372;48.690;12.362;2023-09-07T00:42:51;5.25;;;3.22;;
6671;SDS011;3372;48.690;12.362;2023-09-07T00:45:17;5.53;;;3.65;;
6671;SDS011;3372;48.690;12.362;2023-09-07T00:47:43;7.90;;;3.55;;
6671;SDS011;3372;48.690;12.362;2023-09-07T00:50:10;4.60;;;3.35;;
6671;SDS011;3372;48.690;12.362;2023-09-07T00:52:42;4.65;;;3.78;;
6671;SDS011;3372;48.690;12.362;2023-09-07T00:55:08;6.60;;;3.20;;
6671;SDS011;3372;48.690;12.362;2023-09-07T01:00:00;4.45;;;3.20;;
6671;SDS011;3372;48.690;12.362;2023-09-07T01:02:28;4.15;;;2.92;;
6671;SDS011;3372;48.690;12.362;2023-09-07T01:04:55;5.68;;;3.50;;
6671;SDS011;3372;48.690;12.362;2023-09-07T01:07:21;4.60;;;3.58;;
6671;SDS011;3372;48.690;12.362;2023-09-07T01:09:51;5.95;;;3.05;;
6671;SDS011;3372;48.690;12.362;2023-09-07T01:12:18;4.25;;;3.22;;
6671;SDS011;3372;48.690;12.362;2023-09-07T01:14:45;4.15;;;3.25;;
6671;SDS011;3372;48.690;12.362;2023-09-07T01:17:11;4.93;;;3.15;;
6671;SDS011;3372;48.690;12.362;2023-09-07T01:19:38;5.90;;;3.30;;
6671;SDS011;3372;48.690;12.362;2023-09-07T01:22:05;5.05;;;4.07;;
6671;SDS011;3372;48.690;12.362;2023-09-07T01:24:31;3.92;;;3.58;;
6671;SDS011;3372;48.690;12.362;2023-09-07T01:27:00;6.25;;;3.65;;
6671;SDS011;3372;48.690;12.362;2023-09-07T01:29:28;5.28;;;3.10;;
6671;SDS011;3372;48.690;12.362;2023-09-07T01:31:54;6.07;;;3.72;;
6671;SDS011;3372;48.690;12.362;2023-09-07T01:34:20;7.50;;;3.60;;
6671;SDS011;3372;48.690;12.362;2023-09-07T01:36:46;7.72;;;3.83;;
6671;SDS011;3372;48.690;12.362;2023-09-07T01:39:12;6.50;;;4.10;;
6671;SDS011;3372;48.690;12.362;2023-09-07T01:41:38;5.93;;;3.45;;
6671;SDS011;3372;48.690;12.362;2023-09-07T01:44:04;3.83;;;3.13;;
6671;SDS011;3372;48.690;12.362;2023-09-07T01:46:30;6.40;;;3.17;;
6671;SDS011;3372;48.690;12.362;2023-09-07T01:48:56;4.65;;;3.67;;
6671;SDS011;3372;48.690;12.362;2023-09-07T01:51:22;5.53;;;3.20;;
6671;SDS011;3372;48.690;12.362;2023-09-07T01:53:48;5.82;;;3.38;;
6671;SDS011;3372;48.690;12.362;2023-09-07T01:56:17;7.72;;;3.72;;
6671;SDS011;3372;48.690;12.362;2023-09-07T01:58:43;5.38;;;3.33;;
6671;SDS011;3372;48.690;12.362;2023-09-07T02:01:29;3.92;;;3.10;;
6671;SDS011;3372;48.690;12.362;2023-09-07T02:03:56;7.47;;;3.45;;
6671;SDS011;3372;48.690;12.362;2023-09-07T02:06:22;8.32;;;3.47;;
6671;SDS011;3372;48.690;12.362;2023-09-07T02:08:48;4.28;;;3.38;;
6671;SDS011;3372;48.690;12.362;2023-09-07T02:11:14;4.80;;;3.25;;
6671;SDS011;3372;48.690;12.362;2023-09-07T02:13:44;4.40;;;3.40;;
6671;SDS011;3372;48.690;12.362;2023-09-07T02:16:10;4.15;;;3.03;;
6671;SDS011;3372;48.690;12.362;2023-09-07T02:18:36;4.63;;;3.13;;
6671;SDS011;3372;48.690;12.362;2023-09-07T02:21:08;5.55;;;3.08;;
6671;SDS011;3372;48.690;12.362;2023-09-07T02:23:35;4.28;;;3.53;;
6671;SDS011;3372;48.690;12.362;2023-09-07T02:26:04;3.55;;;2.83;;
6671;SDS011;3372;48.690;12.362;2023-09-07T02:28:30;3.95;;;2.80;;
6671;SDS011;3372;48.690;12.362;2023-09-07T02:31:06;6.28;;;2.95;;
6671;SDS011;3372;48.690;12.362;2023-09-07T02:33:32;5.20;;;2.65;;
6671;SDS011;3372;48.690;12.362;2023-09-07T02:35:58;4.82;;;3.08;;
6671;SDS011;3372;48.690;12.362;2023-09-07T02:38:24;5.90;;;3.10;;
6671;SDS011;3372;48.690;12.362;2023-09-07T02:40:50;3.50;;;3.00;;
6671;SDS011;3372;48.690;12.362;2023-09-07T02:43:16;5.13;;;3.22;;
6671;SDS011;3372;48.690;12.362;2023-09-07T02:45:42;4.20;;;3.20;;
6671;SDS011;3372;48.690;12.362;2023-09-07T02:48:08;4.88;;;3.33;;
6671;SDS011;3372;48.690;12.362;2023-09-07T02:50:34;6.90;;;3.22;;
6671;SDS011;3372;48.690;12.362;2023-09-07T02:53:00;3.78;;;2.97;;
6671;SDS011;3372;48.690;12.362;2023-09-07T02:55:28;4.88;;;3.28;;
6671;SDS011;3372;48.690;12.362;2023-09-07T02:57:54;6.82;;;3.58;;
6671;SDS011;3372;48.690;12.362;2023-09-07T03:00:20;5.45;;;3.33;;
6671;SDS011;3372;48.690;12.362;2023-09-07T03:02:47;4.50;;;3.05;;
6671;SDS011;3372;48.690;12.362;2023-09-07T03:05:14;5.90;;;2.92;;
6671;SDS011;3372;48.690;12.362;2023-09-07T03:07:40;4.60;;;3.22;;
6671;SDS011;3372;48.690;12.362;2023-09-07T03:10:06;3.35;;;2.67;;
6671;SDS011;3372;48.690;12.362;2023-09-07T03:12:32;5.43;;;2.92;;
6671;SDS011;3372;48.690;12.362;2023-09-07T03:14:58;4.50;;;3.20;;
6671;SDS011;3372;48.690;12.362;2023-09-07T03:17:28;6.07;;;3.15;;
6671;SDS011;3372;48.690;12.362;2023-09-07T03:19:54;5.75;;;3.25;;
6671;SDS011;3372;48.690;12.362;2023-09-07T03:22:20;7.07;;;3.45;;
6671;SDS011;3372;48.690;12.362;2023-09-07T03:24:46;5.82;;;3.38;;
6671;SDS011;3372;48.690;12.362;2023-09-07T03:27:12;5.25;;;3.63;;
6671;SDS011;3372;48.690;12.362;2023-09-07T03:29:38;4.03;;;2.90;;
6671;SDS011;3372;48.690;12.362;2023-09-07T03:32:04;5.85;;;3.15;;
6671;SDS011;3372;48.690;12.362;2023-09-07T03:34:31;4.35;;;2.72;;
6671;SDS011;3372;48.690;12.362;2023-09-07T03:36:57;4.75;;;2.97;;
6671;SDS011;3372;48.690;12.362;2023-09-07T03:39:23;4.68;;;3.33;;
6671;SDS011;3372;48.690;12.362;2023-09-07T03:41:49;5.03;;;3.15;;
6671;SDS011;3372;48.690;12.362;2023-09-07T03:44:15;4.35;;;3.47;;
6671;SDS011;3372;48.690;12.362;2023-09-07T03:46:41;5.45;;;3.50;;
6671;SDS011;3372;48.690;12.362;2023-09-07T03:49:07;4.75;;;3.50;;
6671;SDS011;3372;48.690;12.362;2023-09-07T03:51:33;4.03;;;2.53;;
6671;SDS011;3372;48.690;12.362;2023-09-07T03:53:59;5.65;;;3.50;;
6671;SDS011;3372;48.690;12.362;2023-09-07T03:56:25;6.10;;;2.83;;
6671;SDS011;3372;48.690;12.362;2023-09-07T03:58:52;5.25;;;3.83;;
6671;SDS011;3372;48.690;12.362;2023-09-07T04:01:17;6.38;;;3.15;;
6671;SDS011;3372;48.690;12.362;2023-09-07T04:03:43;5.60;;;3.67;;
6671;SDS011;3372;48.690;12.362;2023-09-07T04:06:10;6.18;;;4.05;;
6671;SDS011;3372;48.690;12.362;2023-09-07T04:08:35;5.95;;;3.45;;
6671;SDS011;3372;48.690;12.362;2023-09-07T04:11:05;4.15;;;3.17;;
6671;SDS011;3372;48.690;12.362;2023-09-07T04:13:31;5.32;;;3.05;;
6671;SDS011;3372;48.690;12.362;2023-09-07T04:15:57;7.32;;;3.70;;
6671;SDS011;3372;48.690;12.362;2023-09-07T04:18:23;4.47;;;3.50;;
6671;SDS011;3372;48.690;12.362;2023-09-07T04:20:49;5.10;;;3.53;;
6671;SDS011;3372;48.690;12.362;2023-09-07T04:23:15;4.43;;;3.20;;
6671;SDS011;3372;48.690;12.362;2023-09-07T04:25:41;7.57;;;3.28;;
6671;SDS011;3372;48.690;12.362;2023-09-07T04:28:07;5.65;;;3.38;;
6671;SDS011;3372;48.690;12.362;2023-09-07T04:30:39;4.53;;;3.05;;
6671;SDS011;3372;48.690;12.362;2023-09-07T04:33:05;5.43;;;3.50;;
6671;SDS011;3372;48.690;12.362;2023-09-07T04:35:32;6.20;;;3.90;;
6671;SDS011;3372;48.690;12.362;2023-09-07T04:37:58;7.15;;;4.20;;
6671;SDS011;3372;48.690;12.362;2023-09-07T04:40:24;7.30;;;4.93;;
6671;SDS011;3372;48.690;12.362;2023-09-07T04:42:51;6.15;;;4.50;;
6671;SDS011;3372;48.690;12.362;2023-09-07T04:45:17;4.97;;;4.30;;
6671;SDS011;3372;48.690;12.362;2023-09-07T04:47:43;5.00;;;4.50;;
6671;SDS011;3372;48.690;12.362;2023-09-07T04:50:09;6.07;;;4.15;;
6671;SDS011;3372;48.690;12.362;2023-09-07T04:52:35;5.82;;;4.10;;
6671;SDS011;3372;48.690;12.362;2023-09-07T04:55:02;5.80;;;3.70;;
6671;SDS011;3372;48.690;12.362;2023-09-07T04:57:30;6.20;;;3.95;;
6671;SDS011;3372;48.690;12.362;2023-09-07T04:59:56;9.32;;;4.72;;
6671;SDS011;3372;48.690;12.362;2023-09-07T05:02:22;7.47;;;3.60;;
6671;SDS011;3372;48.690;12.362;2023-09-07T05:04:48;6.00;;;3.80;;
6671;SDS011;3372;48.690;12.362;2023-09-07T05:07:15;5.55;;;3.83;;
6671;SDS011;3372;48.690;12.362;2023-09-07T05:09:42;5.22;;;3.92;;
6671;SDS011;3372;48.690;12.362;2023-09-07T05:12:08;7.00;;;3.83;;
6671;SDS011;3372;48.690;12.362;2023-09-07T05:14:34;5.93;;;4.13;;
6671;SDS011;3372;48.690;12.362;2023-09-07T05:17:00;6.95;;;3.67;;
6671;SDS011;3372;48.690;12.362;2023-09-07T05:19:26;7.75;;;3.83;;
6671;SDS011;3372;48.690;12.362;2023-09-07T05:21:52;7.03;;;4.30;;
6671;SDS011;3372;48.690;12.362;2023-09-07T05:24:18;4.97;;;3.65;;
6671;SDS011;3372;48.690;12.362;2023-09-07T05:26:44;5.85;;;4.63;;
6671;SDS011;3372;48.690;12.362;2023-09-07T05:29:11;9.20;;;3.90;;
6671;SDS011;3372;48.690;12.362;2023-09-07T05:34:03;7.50;;;3.97;;
6671;SDS011;3372;48.690;12.362;2023-09-07T05:36:29;6.70;;;4.95;;
6671;SDS011;3372;48.690;12.362;2023-09-07T05:38:55;8.57;;;4.68;;
6671;SDS011;3372;48.690;12.362;2023-09-07T05:41:21;5.28;;;4.50;;
6671;SDS011;3372;48.690;12.362;2023-09-07T05:43:47;9.00;;;4.30;;
6671;SDS011;3372;48.690;12.362;2023-09-07T05:46:14;4.97;;;4.40;;
6671;SDS011;3372;48.690;12.362;2023-09-07T05:48:40;6.30;;;4.32;;
6671;SDS011;3372;48.690;12.362;2023-09-07T05:51:06;5.88;;;4.60;;
6671;SDS011;3372;48.690;12.362;2023-09-07T05:53:32;6.07;;;4.55;;
6671;SDS011;3372;48.690;12.362;2023-09-07T05:55:58;5.82;;;4.65;;
6671;SDS011;3372;48.690;12.362;2023-09-07T05:58:24;6.07;;;4.32;;
6671;SDS011;3372;48.690;12.362;2023-09-07T06:00:50;7.93;;;5.25;;
6671;SDS011;3372;48.690;12.362;2023-09-07T06:03:16;6.00;;;4.60;;
6671;SDS011;3372;48.690;12.362;2023-09-07T06:05:42;5.93;;;4.97;;
6671;SDS011;3372;48.690;12.362;2023-09-07T06:08:09;6.22;;;5.28;;
6671;SDS011;3372;48.690;12.362;2023-09-07T06:10:35;6.85;;;4.88;;
6671;SDS011;3372;48.690;12.362;2023-09-07T06:13:01;8.20;;;4.53;;
6671;SDS011;3372;48.690;12.362;2023-09-07T06:15:28;6.13;;;5.03;;
6671;SDS011;3372;48.690;12.362;2023-09-07T06:17:54;6.28;;;4.47;;
6671;SDS011;3372;48.690;12.362;2023-09-07T06:20:21;6.07;;;4.43;;
6671;SDS011;3372;48.690;12.362;2023-09-07T06:22:46;5.65;;;4.53;;
6671;SDS011;3372;48.690;12.362;2023-09-07T06:25:14;6.93;;;4.90;;
6671;SDS011;3372;48.690;12.362;2023-09-07T06:27:40;5.35;;;4.78;;
6671;SDS011;3372;48.690;12.362;2023-09-07T06:30:06;6.13;;;4.80;;
6671;SDS011;3372;48.690;12.362;2023-09-07T06:32:32;7.63;;;4.68;;
6671;SDS011;3372;48.690;12.362;2023-09-07T06:34:58;6.93;;;5.13;;
6671;SDS011;3372;48.690;12.362;2023-09-07T06:37:24;6.38;;;4.93;;
6671;SDS011;3372;48.690;12.362;2023-09-07T06:39:52;6.53;;;5.10;;
6671;SDS011;3372;48.690;12.362;2023-09-07T06:42:18;10.50;;;4.60;;
6671;SDS011;3372;48.690;12.362;2023-09-07T06:44:44;7.20;;;4.70;;
6671;SDS011;3372;48.690;12.362;2023-09-07T06:47:10;5.65;;;4.43;;
6671;SDS011;3372;48.690;12.362;2023-09-07T06:49:40;6.45;;;4.38;;
6671;SDS011;3372;48.690;12.362;2023-09-07T06:52:06;5.05;;;4.00;;
6671;SDS011;3372;48.690;12.362;2023-09-07T06:54:32;8.38;;;4.47;;
6671;SDS011;3372;48.690;12.362;2023-09-07T06:56:58;5.13;;;3.38;;
6671;SDS011;3372;48.690;12.362;2023-09-07T06:59:24;6.05;;;3.60;;
6671;SDS011;3372;48.690;12.362;2023-09-07T07:01:50;16.98;;;4.32;;
6671;SDS011;3372;48.690;12.362;2023-09-07T07:04:15;6.43;;;4.20;;
6671;SDS011;3372;48.690;12.362;2023-09-07T07:06:41;6.65;;;4.13;;
6671;SDS011;3372;48.690;12.362;2023-09-07T07:09:07;4.30;;;3.63;;
6671;SDS011;3372;48.690;12.362;2023-09-07T07:11:34;6.90;;;3.78;;
6671;SDS011;3372;48.690;12.362;2023-09-07T07:14:00;5.05;;;3.50;;
6671;SDS011;3372;48.690;12.362;2023-09-07T07:16:26;5.03;;;3.40;;
6671;SDS011;3372;48.690;12.362;2023-09-07T07:18:52;4.85;;;3.58;;
6671;SDS011;3372;48.690;12.362;2023-09-07T07:21:17;3.80;;;3.30;;
6671;SDS011;3372;48.690;12.362;2023-09-07T07:23:43;3.97;;;3.53;;
6671;SDS011;3372;48.690;12.362;2023-09-07T07:26:09;4.43;;;2.90;;
6671;SDS011;3372;48.690;12.362;2023-09-07T07:28:34;6.18;;;3.47;;
6671;SDS011;3372;48.690;12.362;2023-09-07T07:31:07;4.47;;;3.47;;
6671;SDS011;3372;48.690;12.362;2023-09-07T07:33:34;4.05;;;3.60;;
6671;SDS011;3372;48.690;12.362;2023-09-07T07:35:59;4.32;;;3.30;;
6671;SDS011;3372;48.690;12.362;2023-09-07T07:38:25;4.22;;;2.92;;
6671;SDS011;3372;48.690;12.362;2023-09-07T07:40:51;4.35;;;3.15;;
6671;SDS011;3372;48.690;12.362;2023-09-07T07:43:18;4.07;;;2.90;;
6671;SDS011;3372;48.690;12.362;2023-09-07T07:45:43;3.95;;;2.67;;
6671;SDS011;3372;48.690;12.362;2023-09-07T07:48:09;4.40;;;2.50;;
6671;SDS011;3372;48.690;12.362;2023-09-07T07:50:38;4.38;;;3.00;;
6671;SDS011;3372;48.690;12.362;2023-09-07T07:53:04;4.22;;;2.67;;
6671;SDS011;3372;48.690;12.362;2023-09-07T07:55:33;3.53;;;2.63;;
6671;SDS011;3372;48.690;12.362;2023-09-07T07:58:03;3.95;;;2.80;;
6671;SDS011;3372;48.690;12.362;2023-09-07T08:00:30;5.25;;;2.53;;
6671;SDS011;3372;48.690;12.362;2023-09-07T08:02:56;3.50;;;2.83;;
6671;SDS011;3372;48.690;12.362;2023-09-07T08:05:22;4.10;;;3.00;;
6671;SDS011;3372;48.690;12.362;2023-09-07T08:07:48;3.25;;;2.17;;
6671;SDS011;3372;48.690;12.362;2023-09-07T08:10:18;5.30;;;2.47;;
6671;SDS011;3372;48.690;12.362;2023-09-07T08:12:44;4.25;;;2.55;;
6671;SDS011;3372;48.690;12.362;2023-09-07T08:15:10;4.65;;;2.60;;
6671;SDS011;3372;48.690;12.362;2023-09-07T08:17:35;4.13;;;2.30;;
6671;SDS011;3372;48.690;12.362;2023-09-07T08:20:01;2.85;;;2.25;;
6671;SDS011;3372;48.690;12.362;2023-09-07T08:22:28;5.07;;;2.58;;
6671;SDS011;3372;48.690;12.362;2023-09-07T08:24:53;4.50;;;2.45;;
6671;SDS011;3372;48.690;12.362;2023-09-07T08:27:20;4.18;;;2.20;;
6671;SDS011;3372;48.690;12.362;2023-09-07T08:29:46;3.22;;;2.47;;
6671;SDS011;3372;48.690;12.362;2023-09-07T08:32:13;3.20;;;2.55;;
6671;SDS011;3372;48.690;12.362;2023-09-07T08:34:39;3.83;;;2.80;;
6671;SDS011;3372;48.690;12.362;2023-09-07T08:37:06;3.40;;;2.70;;
6671;SDS011;3372;48.690;12.362;2023-09-07T08:39:34;2.97;;;2.35;;
6671;SDS011;3372;48.690;12.362;2023-09-07T08:42:00;5.80;;;2.72;;
6671;SDS011;3372;48.690;12.362;2023-09-07T08:44:26;3.38;;;2.58;;
6671;SDS011;3372;48.690;12.362;2023-09-07T08:46:52;4.13;;;2.75;;
6671;SDS011;3372;48.690;12.362;2023-09-07T08:49:18;3.17;;;2.53;;
6671;SDS011;3372;48.690;12.362;2023-09-07T08:51:44;4.05;;;2.55;;
6671;SDS011;3372;48.690;12.362;2023-09-07T08:54:10;2.83;;;2.42;;
6671;SDS011;3372;48.690;12.362;2023-09-07T08:56:37;4.97;;;2.50;;
6671;SDS011;3372;48.690;12.362;2023-09-07T08:59:03;7.90;;;3.88;;
6671;SDS011;3372;48.690;12.362;2023-09-07T09:01:29;3.60;;;3.03;;
6671;SDS011;3372;48.690;12.362;2023-09-07T09:03:59;4.22;;;2.80;;
6671;SDS011;3372;48.690;12.362;2023-09-07T09:06:24;3.75;;;2.92;;
6671;SDS011;3372;48.690;12.362;2023-09-07T09:11:20;4.07;;;2.92;;
6671;SDS011;3372;48.690;12.362;2023-09-07T09:13:47;3.90;;;2.63;;
6671;SDS011;3372;48.690;12.362;2023-09-07T09:16:13;5.60;;;2.55;;
6671;SDS011;3372;48.690;12.362;2023-09-07T09:18:49;4.90;;;2.78;;
6671;SDS011;3372;48.690;12.362;2023-09-07T09:21:17;4.65;;;3.03;;
6671;SDS011;3372;48.690;12.362;2023-09-07T09:23:51;4.68;;;2.80;;
6671;SDS011;3372;48.690;12.362;2023-09-07T09:26:18;2.85;;;2.50;;
6671;SDS011;3372;48.690;12.362;2023-09-07T09:28:44;4.97;;;2.85;;
6671;SDS011;3372;48.690;12.362;2023-09-07T09:31:10;17.63;;;4.38;;
6671;SDS011;3372;48.690;12.362;2023-09-07T09:33:40;3.95;;;2.85;;
6671;SDS011;3372;48.690;12.362;2023-09-07T09:36:06;3.90;;;2.22;;
6671;SDS011;3372;48.690;12.362;2023-09-07T09:38:33;4.03;;;2.72;;
6671;SDS011;3372;48.690;12.362;2023-09-07T09:43:25;5.07;;;2.83;;
6671;SDS011;3372;48.690;12.362;2023-09-07T09:45:52;4.55;;;2.85;;
6671;SDS011;3372;48.690;12.362;2023-09-07T09:48:21;4.68;;;2.90;;
6671;SDS011;3372;48.690;12.362;2023-09-07T09:50:47;4.80;;;2.60;;
6671;SDS011;3372;48.690;12.362;2023-09-07T09:53:17;3.40;;;2.80;;
6671;SDS011;3372;48.690;12.362;2023-09-07T09:55:45;3.35;;;2.45;;
6671;SDS011;3372;48.690;12.362;2023-09-07T09:58:12;4.13;;;2.45;;
6671;SDS011;3372;48.690;12.362;2023-09-07T10:00:40;3.83;;;2.75;;
6671;SDS011;3372;48.690;12.362;2023-09-07T10:05:32;3.95;;;2.90;;
6671;SDS011;3372;48.690;12.362;2023-09-07T10:08:03;4.20;;;2.60;;
6671;SDS011;3372;48.690;12.362;2023-09-07T10:10:32;7.75;;;2.58;;
6671;SDS011;3372;48.690;12.362;2023-09-07T10:13:00;3.05;;;2.75;;
6671;SDS011;3372;48.690;12.362;2023-09-07T10:15:26;3.10;;;2.70;;
6671;SDS011;3372;48.690;12.362;2023-09-07T10:18:03;3.95;;;2.65;;
6671;SDS011;3372;48.690;12.362;2023-09-07T10:20:34;4.35;;;3.13;;
6671;SDS011;3372;48.690;12.362;2023-09-07T10:23:03;3.20;;;2.33;;
6671;SDS011;3372;48.690;12.362;2023-09-07T10:25:30;4.80;;;2.53;;
6671;SDS011;3372;48.690;12.362;2023-09-07T10:27:57;5.03;;;2.33;;
6671;SDS011;3372;48.690;12.362;2023-09-07T10:30:24;4.57;;;2.75;;
6671;SDS011;3372;48.690;12.362;2023-09-07T10:32:50;3.35;;;2.50;;
6671;SDS011;3372;48.690;12.362;2023-09-07T10:35:18;3.60;;;2.40;;
6671;SDS011;3372;48.690;12.362;2023-09-07T10:37:47;4.18;;;2.45;;
6671;SDS011;3372;48.690;12.362;2023-09-07T10:40:22;3.45;;;2.33;;
6671;SDS011;3372;48.690;12.362;2023-09-07T10:42:48;3.45;;;2.60;;
6671;SDS011;3372;48.690;12.362;2023-09-07T10:45:15;4.35;;;2.53;;
6671;SDS011;3372;48.690;12.362;2023-09-07T10:47:42;3.53;;;2.47;;
6671;SDS011;3372;48.690;12.362;2023-09-07T10:50:11;4.57;;;2.55;;
6671;SDS011;3372;48.690;12.362;2023-09-07T10:52:41;3.22;;;2.50;;
6671;SDS011;3372;48.690;12.362;2023-09-07T10:55:08;6.72;;;2.50;;
6671;SDS011;3372;48.690;12.362;2023-09-07T10:57:42;6.10;;;2.15;;
6671;SDS011;3372;48.690;12.362;2023-09-07T11:00:12;4.88;;;2.83;;
6671;SDS011;3372;48.690;12.362;2023-09-07T11:02:39;6.70;;;2.53;;
6671;SDS011;3372;48.690;12.362;2023-09-07T11:05:05;3.20;;;2.50;;
6671;SDS011;3372;48.690;12.362;2023-09-07T11:07:32;3.92;;;2.63;;
6671;SDS011;3372;48.690;12.362;2023-09-07T11:09:58;7.93;;;3.25;;
6671;SDS011;3372;48.690;12.362;2023-09-07T11:12:24;3.80;;;2.60;;
6671;SDS011;3372;48.690;12.362;2023-09-07T11:14:50;5.85;;;2.15;;
6671;SDS011;3372;48.690;12.362;2023-09-07T11:17:17;3.90;;;2.17;;
6671;SDS011;3372;48.690;12.362;2023-09-07T11:19:43;4.50;;;2.58;;
6671;SDS011;3372;48.690;12.362;2023-09-07T11:22:11;4.05;;;2.60;;
6671;SDS011;3372;48.690;12.362;2023-09-07T11:24:39;5.43;;;2.72;;
6671;SDS011;3372;48.690;12.362;2023-09-07T11:27:05;4.07;;;2.47;;
6671;SDS011;3372;48.690;12.362;2023-09-07T11:29:31;5.80;;;2.67;;
6671;SDS011;3372;48.690;12.362;2023-09-07T11:32:07;4.07;;;2.65;;
6671;SDS011;3372;48.690;12.362;2023-09-07T11:34:33;5.35;;;2.30;;
6671;SDS011;3372;48.690;12.362;2023-09-07T11:37:01;3.50;;;2.72;;
6671;SDS011;3372;48.690;12.362;2023-09-07T11:39:28;3.65;;;2.55;;
6671;SDS011;3372;48.690;12.362;2023-09-07T11:41:54;7.40;;;2.67;;
6671;SDS011;3372;48.690;12.362;2023-09-07T11:44:20;4.38;;;2.60;;
6671;SDS011;3372;48.690;12.362;2023-09-07T11:46:45;4.32;;;2.60;;
6671;SDS011;3372;48.690;12.362;2023-09-07T11:49:11;4.70;;;2.53;;
6671;SDS011;3372;48.690;12.362;2023-09-07T11:51:37;3.45;;;2.42;;
6671;SDS011;3372;48.690;12.362;2023-09-07T11:54:02;3.67;;;2.60;;
6671;SDS011;3372;48.690;12.362;2023-09-07T11:56:29;3.72;;;2.63;;
6671;SDS011;3372;48.690;12.362;2023-09-07T11:58:55;4.32;;;2.53;;
6671;SDS011;3372;48.690;12.362;2023-09-07T12:01:21;4.30;;;2.50;;
6671;SDS011;3372;48.690;12.362;2023-09-07T12:03:46;3.38;;;2.55;;
6671;SDS011;3372;48.690;12.362;2023-09-07T12:06:12;5.10;;;2.58;;
6671;SDS011;3372;48.690;12.362;2023-09-07T12:08:41;5.63;;;2.83;;
6671;SDS011;3372;48.690;12.362;2023-09-07T12:11:08;4.80;;;3.05;;
6671;SDS011;3372;48.690;12.362;2023-09-07T12:13:33;4.80;;;2.85;;
6671;SDS011;3372;48.690;12.362;2023-09-07T12:15:59;4.95;;;3.20;;
6671;SDS011;3372;48.690;12.362;2023-09-07T12:18:27;4.95;;;2.53;;
6671;SDS011;3372;48.690;12.362;2023-09-07T12:20:52;3.30;;;2.45;;
6671;SDS011;3372;48.690;12.362;2023-09-07T12:23:19;3.83;;;2.30;;
6671;SDS011;3372;48.690;12.362;2023-09-07T12:25:44;4.53;;;2.50;;
6671;SDS011;3372;48.690;12.362;2023-09-07T12:28:15;4.03;;;2.60;;
6671;SDS011;3372;48.690;12.362;2023-09-07T12:30:41;10.40;;;3.03;;
6671;SDS011;3372;48.690;12.362;2023-09-07T12:33:09;6.15;;;2.85;;
6671;SDS011;3372;48.690;12.362;2023-09-07T12:35:35;4.60;;;2.83;;
6671;SDS011;3372;48.690;12.362;2023-09-07T12:38:00;3.40;;;2.15;;
6671;SDS011;3372;48.690;12.362;2023-09-07T12:40:26;7.18;;;2.83;;
6671;SDS011;3372;48.690;12.362;2023-09-07T12:42:51;4.20;;;3.10;;
6671;SDS011;3372;48.690;12.362;2023-09-07T12:45:17;3.72;;;2.72;;
6671;SDS011;3372;48.690;12.362;2023-09-07T12:47:43;7.00;;;3.40;;
6671;SDS011;3372;48.690;12.362;2023-09-07T12:50:09;3.20;;;2.33;;
6671;SDS011;3372;48.690;12.362;2023-09-07T12:52:34;6.28;;;2.72;;
6671;SDS011;3372;48.690;12.362;2023-09-07T12:55:02;4.55;;;2.70;;
6671;SDS011;3372;48.690;12.362;2023-09-07T12:57:29;3.38;;;2.55;;
6671;SDS011;3372;48.690;12.362;2023-09-07T12:59:54;3.30;;;2.40;;
6671;SDS011;3372;48.690;12.362;2023-09-07T13:02:20;5.32;;;2.45;;
6671;SDS011;3372;48.690;12.362;2023-09-07T13:04:46;3.83;;;2.58;;
6671;SDS011;3372;48.690;12.362;2023-09-07T13:07:12;6.32;;;2.70;;
6671;SDS011;3372;48.690;12.362;2023-09-07T13:09:38;4.82;;;2.80;;
6671;SDS011;3372;48.690;12.362;2023-09-07T13:12:04;5.03;;;3.10;;
6671;SDS011;3372;48.690;12.362;2023-09-07T13:16:56;3.72;;;2.60;;
6671;SDS011;3372;48.690;12.362;2023-09-07T13:19:23;3.58;;;2.65;;
6671;SDS011;3372;48.690;12.362;2023-09-07T13:21:49;3.83;;;2.55;;
6671;SDS011;3372;48.690;12.362;2023-09-07T13:24:15;4.70;;;2.78;;
6671;SDS011;3372;48.690;12.362;2023-09-07T13:26:41;3.83;;;2.75;;
6671;SDS011;3372;48.690;12.362;2023-09-07T13:29:07;3.67;;;2.40;;
6671;SDS011;3372;48.690;12.362;2023-09-07T13:31:33;4.95;;;2.83;;
6671;SDS011;3372;48.690;12.362;2023-09-07T13:33:59;3.90;;;2.70;;
6671;SDS011;3372;48.690;12.362;2023-09-07T13:36:25;4.75;;;2.80;;
6671;SDS011;3372;48.690;12.362;2023-09-07T13:38:51;5.35;;;2.42;;
6671;SDS011;3372;48.690;12.362;2023-09-07T13:41:17;4.97;;;2.90;;
6671;SDS011;3372;48.690;12.362;2023-09-07T13:43:42;5.05;;;2.88;;
6671;SDS011;3372;48.690;12.362;2023-09-07T13:46:08;6.43;;;2.70;;
6671;SDS011;3372;48.690;12.362;2023-09-07T13:48:34;4.82;;;2.72;;
6671;SDS011;3372;48.690;12.362;2023-09-07T13:51:00;3.90;;;2.72;;
6671;SDS011;3372;48.690;12.362;2023-09-07T13:53:27;4.80;;;2.80;;
6671;SDS011;3372;48.690;12.362;2023-09-07T13:55:53;3.58;;;2.60;;
6671;SDS011;3372;48.690;12.362;2023-09-07T13:58:19;3.75;;;2.67;;
6671;SDS011;3372;48.690;12.362;2023-09-07T14:00:45;3.60;;;2.65;;
6671;SDS011;3372;48.690;12.362;2023-09-07T14:03:12;7.05;;;2.92;;
6671;SDS011;3372;48.690;12.362;2023-09-07T14:05:38;3.05;;;2.45;;
6671;SDS011;3372;48.690;12.362;2023-09-07T14:08:04;4.00;;;3.15;;
6671;SDS011;3372;48.690;12.362;2023-09-07T14:10:30;5.05;;;2.85;;
6671;SDS011;3372;48.690;12.362;2023-09-07T14:12:56;5.20;;;2.47;;
6671;SDS011;3372;48.690;12.362;2023-09-07T14:15:22;3.97;;;3.03;;
6671;SDS011;3372;48.690;12.362;2023-09-07T14:17:48;6.22;;;2.72;;
6671;SDS011;3372;48.690;12.362;2023-09-07T14:20:14;4.22;;;2.90;;
6671;SDS011;3372;48.690;12.362;2023-09-07T14:22:40;5.05;;;2.80;;
6671;SDS011;3372;48.690;12.362;2023-09-07T14:25:07;4.70;;;2.40;;
6671;SDS011;3372;48.690;12.362;2023-09-07T14:29:59;6.07;;;2.58;;
6671;SDS011;3372;48.690;12.362;2023-09-07T14:32:25;3.20;;;2.53;;
6671;SDS011;3372;48.690;12.362;2023-09-07T14:34:52;4.40;;;2.78;;
6671;SDS011;3372;48.690;12.362;2023-09-07T14:37:18;3.35;;;2.42;;
6671;SDS011;3372;48.690;12.362;2023-09-07T14:39:44;4.97;;;2.90;;
6671;SDS011;3372;48.690;12.362;2023-09-07T14:42:13;4.45;;;2.95;;
6671;SDS011;3372;48.690;12.362;2023-09-07T14:44:41;4.45;;;2.60;;
6671;SDS011;3372;48.690;12.362;2023-09-07T14:47:07;5.38;;;2.65;;
6671;SDS011;3372;48.690;12.362;2023-09-07T14:49:35;3.80;;;2.60;;
6671;SDS011;3372;48.690;12.362;2023-09-07T14:52:01;4.45;;;2.58;;
6671;SDS011;3372;48.690;12.362;2023-09-07T14:54:27;4.07;;;2.65;;
6671;SDS011;3372;48.690;12.362;2023-09-07T14:56:53;6.10;;;3.08;;
6671;SDS011;3372;48.690;12.362;2023-09-07T15:01:45;3.35;;;2.72;;
6671;SDS011;3372;48.690;12.362;2023-09-07T15:04:11;6.70;;;2.65;;
6671;SDS011;3372;48.690;12.362;2023-09-07T15:06:37;5.68;;;2.85;;
6671;SDS011;3372;48.690;12.362;2023-09-07T15:09:03;4.97;;;2.85;;
6671;SDS011;3372;48.690;12.362;2023-09-07T15:11:29;4.28;;;2.42;;
6671;SDS011;3372;48.690;12.362;2023-09-07T15:13:55;4.43;;;3.13;;
6671;SDS011;3372;48.690;12.362;2023-09-07T15:16:21;4.32;;;2.45;;